Hague, New York
Current Conditions -  °F | °C
As of 12:55 PM on Friday 24 Oct 2014 (Local Time) from K6B0 Reporting Station
Haze Haze  
Wind Chill: 37°   Ceiling: 600
Heat Index: 43°   Visibility: 4mi
Dew Point: 43°   Wind: 12mph
Humidity: 100%   Direction: 360°N
Pressure: 29.82"   Gusts: 18mph
Location:  43.75°N, 73.5°W
Report Text: K6B0 241655Z AUTO 36010G16KT 4SM BR OVC006 06/06 A2982 RMK AO2 T00620062
Loading
Personal Weather Stations






























Interactive Weather Map
Tropical Storm Tracking
New forecast layout! Learn more

10-Day Weather Forecast

Advertisements
Track Severe Weather on mobile